Time;durP1;ratioP1;P1;durP2;ratioP2;P2;SDS_P1;SDS_P2;PMS_P1;PMS_P2;Temp;Humidity;BMP_temperature;BMP_pressure;BME280_temperature;BME280_humidity;BME280_pressure;Samples;Min_cycle;Max_cycle;Signal;HPM_P1;HPM_P2
2022/12/14 05:48:49;;;;;;;;;;;;;;;4.31;72.65;95295.28;4227293;27;10809;-68
2022/12/14 05:50:52;;;;;;;;;;;;;;;4.61;72.20;95293.25;4223338;28;5680;-69
2022/12/14 05:52:54;;;;;;;;;;;;;;;4.86;71.79;95288.34;4224449;28;5664;-68
2022/12/14 05:54:57;;;;;;;;;;;;;;;5.04;71.22;95287.03;4226275;28;5676;-68
2022/12/14 05:57:06;;;;;;;;;;;;;;;5.20;71.05;95292.72;4217738;28;5675;-68
2022/12/14 05:59:14;;;;;;;;;;;;;;;5.30;70.72;95283.69;4231612;28;5683;-68
2022/12/14 06:01:17;;;;;;;;;;;;;;;5.42;70.50;95290.75;4231609;28;5680;-68
2022/12/14 06:03:21;;;;;;;;;;;;;;;5.51;70.33;95291.41;4226726;28;5811;-68
2022/12/14 06:05:25;;;;;;;;;;;;;;;5.58;70.39;95288.81;4228851;28;6385;-69
2022/12/14 06:07:28;;;;;;;;;;;;;;;5.62;70.10;95282.97;4231628;28;5815;-68
2022/12/14 06:09:31;;;;;;;;;;;;;;;5.67;70.13;95285.81;4216903;28;5784;-68
2022/12/14 06:11:37;;;;;;;;;;;;;;;5.72;69.92;95291.25;4217869;28;5788;-68
2022/12/14 06:13:41;;;;;;;;;;;;;;;5.74;69.67;95280.56;4223137;28;5788;-68
2022/12/14 06:15:43;;;;;;;;;;;;;;;5.77;69.89;95295.88;4231346;28;5679;-69
2022/12/14 06:17:47;;;;;;;;;;;;;;;5.80;69.73;95296.31;4214588;28;5706;-70
2022/12/14 06:19:49;;;;;;;;;;;;;;;5.84;69.44;95294.09;4223738;28;6358;-69
2022/12/14 06:21:53;;;;;;;;;;;;;;;5.83;69.56;95288.03;4229688;28;6377;-69
2022/12/14 06:23:57;;;;;;;;;;;;;;;5.85;69.48;95282.59;4222565;28;5672;-70
2022/12/14 06:26:00;;;;;;;;;;;;;;;5.88;69.51;95284.81;4225105;28;5739;-69
2022/12/14 06:28:03;;;;;;;;;;;;;;;5.91;69.48;95286.28;4231244;28;5660;-68
2022/12/14 06:30:07;;;;;;;;;;;;;;;5.94;69.46;95285.84;4230895;28;5664;-68
2022/12/14 06:32:10;;;;;;;;;;;;;;;5.95;69.40;95287.47;4222677;28;5663;-68
2022/12/14 06:34:13;;;;;;;;;;;;;;;5.96;69.22;95284.66;4219082;28;5728;-68
2022/12/14 06:36:18;;;;;;;;;;;;;;;5.98;69.14;95297.56;4223689;28;5689;-68
2022/12/14 06:38:22;;;;;;;;;;;;;;;5.98;69.12;95292.31;4227327;28;5659;-68
2022/12/14 06:40:25;;;;;;;;;;;;;;;6.01;69.05;95284.06;4230943;28;5660;-69
2022/12/14 06:42:28;;;;;;;;;;;;;;;6.03;69.12;95287.28;4231361;28;5750;-69
2022/12/14 06:44:30;;;;;;;;;;;;;;;6.04;69.04;95302.00;4231219;28;5684;-69
2022/12/14 06:46:34;;;;;;;;;;;;;;;6.05;68.71;95293.13;4231061;28;5778;-69
2022/12/14 06:48:37;;;;;;;;;;;;;;;6.05;68.73;95288.69;4241999;27;5608;-69
2022/12/14 06:50:40;;;;;;;;;;;;;;;6.07;68.93;95285.84;4226823;28;5609;-69
2022/12/14 06:52:43;;;;;;;;;;;;;;;6.09;68.57;95273.34;4236168;28;5622;-69
2022/12/14 06:54:47;;;;;;;;;;;;;;;6.11;68.86;95276.56;4234886;28;5777;-69
2022/12/14 06:56:50;;;;;;;;;;;;;;;6.12;68.64;95293.94;4236021;28;7116;-69
2022/12/14 06:58:54;;;;;;;;;;;;;;;6.12;68.83;95293.94;4227483;28;5611;-69
2022/12/14 07:01:01;;;;;;;;;;;;;;;6.13;68.54;95287.69;4236345;28;5604;-69
2022/12/14 07:03:04;;;;;;;;;;;;;;;6.12;68.51;95300.00;4233574;28;5814;-69
2022/12/14 07:05:07;;;;;;;;;;;;;;;6.15;68.66;95308.47;4222223;28;5107;-70
2022/12/14 07:07:10;;;;;;;;;;;;;;;6.16;68.37;95316.16;4232586;28;7655;-68
2022/12/14 07:09:14;;;;;;;;;;;;;;;6.18;68.42;95315.94;4231330;28;5609;-68
2022/12/14 07:11:18;;;;;;;;;;;;;;;6.19;68.29;95330.66;4231193;28;5619;-68
2022/12/14 07:13:21;;;;;;;;;;;;;;;6.20;68.38;95316.53;4227004;28;5605;-61
2022/12/14 07:15:24;;;;;;;;;;;;;;;6.19;68.30;95313.09;4230329;28;5600;-61
2022/12/14 07:17:27;;;;;;;;;;;;;;;6.21;68.27;95318.16;4234797;28;5773;-62
2022/12/14 07:19:30;;;;;;;;;;;;;;;6.21;68.20;95318.16;4226790;28;5633;-62
2022/12/14 07:21:33;;;;;;;;;;;;;;;6.23;68.19;95306.47;4229484;28;5525;-62
2022/12/14 07:23:37;;;;;;;;;;;;;;;6.23;67.93;95319.59;4227649;28;5735;-62
2022/12/14 07:25:40;;;;;;;;;;;;;;;6.25;67.94;95307.06;4224229;28;5707;-62
2022/12/14 07:27:44;;;;;;;;;;;;;;;6.27;68.10;95302.41;4219037;28;5722;-62
2022/12/14 07:29:47;;;;;;;;;;;;;;;6.29;68.01;95304.84;4221583;28;5672;-62
2022/12/14 07:31:50;;;;;;;;;;;;;;;6.32;67.84;95325.41;4225049;28;5601;-61
2022/12/14 07:33:53;;;;;;;;;;;;;;;6.33;68.04;95327.03;4228352;28;5636;-61
2022/12/14 07:36:02;;;;;;;;;;;;;;;6.35;67.90;95319.78;4227817;28;5597;-61
2022/12/14 07:38:05;;;;;;;;;;;;;;;6.36;67.75;95331.91;4231335;28;5817;-62
2022/12/14 07:40:09;;;;;;;;;;;;;;;6.36;67.74;95331.91;4232959;28;5593;-62
2022/12/14 07:42:12;;;;;;;;;;;;;;;6.34;67.95;95329.47;4230942;28;5608;-62
2022/12/14 07:44:17;;;;;;;;;;;;;;;6.36;67.62;95316.97;4226040;28;5648;-61
2022/12/14 07:46:22;;;;;;;;;;;;;;;6.38;67.70;95314.94;4222626;28;5620;-62
2022/12/14 07:48:25;;;;;;;;;;;;;;;6.41;67.63;95330.28;4224152;28;5601;-62
2022/12/14 07:50:28;;;;;;;;;;;;;;;6.42;67.73;95324.00;4235066;28;5608;-61
2022/12/14 07:52:33;;;;;;;;;;;;;;;6.45;67.60;95314.91;4227312;28;5078;-61
2022/12/14 07:54:39;;;;;;;;;;;;;;;6.49;67.59;95305.63;4227356;28;5791;-62
2022/12/14 07:56:43;;;;;;;;;;;;;;;6.52;67.37;95309.66;4205083;28;5078;-62
2022/12/14 07:58:46;;;;;;;;;;;;;;;6.52;67.43;95314.91;4218722;28;5616;-61
2022/12/14 08:00:53;;;;;;;;;;;;;;;6.53;67.40;95313.91;4232103;28;5746;-62
2022/12/14 08:02:56;;;;;;;;;;;;;;;6.52;67.59;95309.66;4231872;28;5620;-62
2022/12/14 08:04:58;;;;;;;;;;;;;;;6.53;67.38;95316.53;4229712;28;5686;-62
2022/12/14 08:07:02;;;;;;;;;;;;;;;6.53;67.39;95319.16;4232360;28;5664;-62
2022/12/14 08:09:05;;;;;;;;;;;;;;;6.53;67.50;95324.41;4221318;28;5719;-63
2022/12/14 08:11:09;;;;;;;;;;;;;;;6.54;67.40;95333.91;4231663;28;5696;-63
2022/12/14 08:13:12;;;;;;;;;;;;;;;6.58;67.45;95325.44;4232745;28;5692;-62
2022/12/14 08:15:15;;;;;;;;;;;;;;;6.59;67.41;95315.72;4225716;28;5613;-62
2022/12/14 08:17:19;;;;;;;;;;;;;;;6.62;67.19;95315.31;4225742;28;5714;-62
2022/12/14 08:19:22;;;;;;;;;;;;;;;6.62;67.24;95318.75;4230069;28;5602;-62
2022/12/14 08:21:25;;;;;;;;;;;;;;;6.65;66.91;95333.28;4235180;28;5589;-62
2022/12/14 08:23:29;;;;;;;;;;;;;;;6.63;67.22;95330.84;4235054;28;5680;-61
2022/12/14 08:25:32;;;;;;;;;;;;;;;6.62;67.36;95331.88;4233683;28;5613;-62
2022/12/14 08:27:35;;;;;;;;;;;;;;;6.63;67.24;95322.19;4226246;28;5806;-62
2022/12/14 08:29:38;;;;;;;;;;;;;;;6.63;67.17;95320.34;4225233;28;5609;-62
2022/12/14 08:31:41;;;;;;;;;;;;;;;6.65;67.09;95330.66;4232280;28;5616;-62
2022/12/14 08:33:47;;;;;;;;;;;;;;;6.68;67.32;95330.22;4234217;28;5676;-62
2022/12/14 08:35:50;;;;;;;;;;;;;;;6.70;67.01;95339.53;4235134;28;5581;-62
2022/12/14 08:37:53;;;;;;;;;;;;;;;6.70;67.00;95328.25;4224612;28;5604;-62
2022/12/14 08:39:56;;;;;;;;;;;;;;;6.72;67.08;95331.47;4222282;28;5609;-62
2022/12/14 08:41:59;;;;;;;;;;;;;;;6.75;67.03;95322.34;4232270;28;5606;-62
2022/12/14 08:44:04;;;;;;;;;;;;;;;6.78;66.88;95335.88;4235147;28;5783;-61
2022/12/14 08:46:08;;;;;;;;;;;;;;;6.80;66.84;95333.88;4234961;28;5676;-61
2022/12/14 08:48:10;;;;;;;;;;;;;;;6.82;66.88;95305.59;4234118;28;5613;-61
2022/12/14 08:50:15;;;;;;;;;;;;;;;6.85;66.91;95315.66;4234953;28;5608;-62
2022/12/14 08:52:21;;;;;;;;;;;;;;;6.87;67.00;95318.09;4233871;28;5609;-62
2022/12/14 08:54:24;;;;;;;;;;;;;;;6.89;66.96;95327.38;4220493;28;5652;-62
2022/12/14 08:56:28;;;;;;;;;;;;;;;6.91;66.72;95311.44;4217793;28;5683;-62
2022/12/14 08:58:30;;;;;;;;;;;;;;;6.92;66.62;95303.34;4232329;28;5762;-62
2022/12/14 09:00:33;;;;;;;;;;;;;;;6.93;66.63;95280.50;4234794;28;5593;-62
2022/12/14 09:02:37;;;;;;;;;;;;;;;6.95;66.55;95294.22;4216551;28;5679;-61
2022/12/14 09:04:40;;;;;;;;;;;;;;;6.95;66.79;95323.94;4234403;28;5613;-62
2022/12/14 09:06:45;;;;;;;;;;;;;;;6.96;66.62;95343.94;4234529;28;5612;-62
2022/12/14 09:08:48;;;;;;;;;;;;;;;6.98;66.51;95356.88;4228997;28;5612;-62
2022/12/14 09:10:52;;;;;;;;;;;;;;;6.97;66.62;95348.19;4221810;28;5596;-62
2022/12/14 09:12:55;;;;;;;;;;;;;;;6.97;66.77;95345.56;4225605;28;5788;-61
2022/12/14 09:14:58;;;;;;;;;;;;;;;7.05;66.67;95335.84;4233387;28;5637;-61
2022/12/14 09:17:03;;;;;;;;;;;;;;;7.10;66.46;95336.00;4231322;28;5613;-61
2022/12/14 09:19:06;;;;;;;;;;;;;;;7.14;66.26;95330.16;4232942;28;5574;-62
2022/12/14 09:21:09;;;;;;;;;;;;;;;7.14;66.54;95334.59;4234274;28;6861;-62
2022/12/14 09:23:13;;;;;;;;;;;;;;;7.17;66.53;95340.25;4233234;28;5605;-62
2022/12/14 09:25:16;;;;;;;;;;;;;;;7.20;66.37;95339.03;4226828;28;5601;-62
2022/12/14 09:27:21;;;;;;;;;;;;;;;7.18;66.30;95351.56;4226323;28;5609;-63
2022/12/14 09:29:23;;;;;;;;;;;;;;;7.17;66.41;95360.47;4227749;28;5422;-62
2022/12/14 09:31:27;;;;;;;;;;;;;;;7.17;66.24;95371.78;4229801;28;6731;-62
2022/12/14 09:33:31;;;;;;;;;;;;;;;7.21;66.27;95364.28;4231772;28;5898;-62
2022/12/14 09:35:35;;;;;;;;;;;;;;;7.22;66.37;95358.81;4227394;28;6611;-61
2022/12/14 09:37:39;;;;;;;;;;;;;;;7.26;66.40;95364.50;4231571;28;5780;-61
2022/12/14 09:39:43;;;;;;;;;;;;;;;7.27;66.32;95371.34;4223238;28;5605;-61
2022/12/14 09:41:52;;;;;;;;;;;;;;;7.29;66.17;95366.69;4217942;28;5619;-61
2022/12/14 09:44:07;;;;;;;;;;;;;;;7.30;66.06;95357.78;4228319;28;5598;-61
2022/12/14 09:46:32;;;;;;;;;;;;;;;7.30;66.19;95370.94;4226372;28;5697;-62
2022/12/14 09:48:36;;;;;;;;;;;;;;;7.30;66.15;95366.50;4207995;28;5783;-62
2022/12/14 09:50:41;;;;;;;;;;;;;;;7.32;66.15;95373.34;4222526;28;5608;-62
2022/12/14 09:52:48;;;;;;;;;;;;;;;7.32;66.07;95362.84;4229037;28;5675;-61
2022/12/14 09:54:54;;;;;;;;;;;;;;;7.36;66.33;95364.03;4229874;28;5811;-62
2022/12/14 09:57:01;;;;;;;;;;;;;;;7.35;66.28;95357.16;4217776;28;5718;-62
2022/12/14 09:59:04;;;;;;;;;;;;;;;7.36;66.23;95362.22;4217491;28;5604;-61
2022/12/14 10:01:29;;;;;;;;;;;;;;;7.35;66.23;95351.91;4217308;28;5722;-61
2022/12/14 10:03:49;;;;;;;;;;;;;;;7.38;66.05;95354.13;4223090;28;5605;-68
2022/12/14 10:06:16;;;;;;;;;;;;;;;7.37;66.21;95363.03;4226297;28;5736;-67
2022/12/14 10:08:25;;;;;;;;;;;;;;;7.38;66.15;95359.41;4222385;28;5768;-65
2022/12/14 10:10:36;;;;;;;;;;;;;;;7.40;66.12;95344.22;4231340;28;5649;-65
2022/12/14 10:12:51;;;;;;;;;;;;;;;7.39;66.19;95348.66;4217870;28;5612;-65
2022/12/14 10:15:14;;;;;;;;;;;;;;;7.36;66.03;95348.25;4219919;28;5608;-64
2022/12/14 10:17:29;;;;;;;;;;;;;;;7.37;66.01;95345.44;4221626;28;5604;-66
2022/12/14 10:19:37;;;;;;;;;;;;;;;7.40;65.92;95350.28;4218852;28;5596;-66
2022/12/14 10:21:48;;;;;;;;;;;;;;;7.43;65.76;95349.84;4233115;28;6424;-66
2022/12/14 10:23:56;;;;;;;;;;;;;;;7.43;65.88;95355.09;4233652;28;5691;-66
2022/12/14 10:26:06;;;;;;;;;;;;;;;7.42;65.84;95345.59;4230486;28;5617;-66
2022/12/14 10:28:19;;;;;;;;;;;;;;;7.45;65.82;95342.56;4233729;28;5710;-66
2022/12/14 10:30:23;;;;;;;;;;;;;;;7.44;65.75;95329.63;4233923;28;5609;-66
2022/12/14 10:32:31;;;;;;;;;;;;;;;7.45;65.93;95341.75;4237105;28;5597;-66
2022/12/14 10:34:36;;;;;;;;;;;;;;;7.46;66.04;95341.53;4221548;28;5796;-66
2022/12/14 10:36:52;;;;;;;;;;;;;;;7.49;65.79;95358.75;4227581;28;5613;-65
2022/12/14 10:38:58;;;;;;;;;;;;;;;7.50;65.82;95350.66;4235325;28;5633;-65
2022/12/14 10:41:14;;;;;;;;;;;;;;;7.50;65.82;95350.66;4226492;28;5674;-67
2022/12/14 10:43:34;;;;;;;;;;;;;;;7.52;65.94;95345.97;4229361;28;5597;-67
2022/12/14 10:45:47;;;;;;;;;;;;;;;7.53;65.89;95333.63;4233707;28;5620;-66
2022/12/14 10:47:54;;;;;;;;;;;;;;;7.54;65.83;95333.41;4236533;28;6299;-65
2022/12/14 10:50:03;;;;;;;;;;;;;;;7.58;65.65;95318.03;4236403;28;5695;-66
2022/12/14 10:52:13;;;;;;;;;;;;;;;7.61;65.93;95317.63;4229977;28;5771;-66
2022/12/14 10:54:32;;;;;;;;;;;;;;;7.63;65.80;95323.47;4228736;28;5589;-65
2022/12/14 10:56:41;;;;;;;;;;;;;;;7.65;65.85;95331.16;4230927;28;5684;-67
2022/12/14 10:58:44;;;;;;;;;;;;;;;7.67;65.74;95327.28;4231843;28;5608;-67
2022/12/14 11:00:53;;;;;;;;;;;;;;;7.69;65.70;95332.34;4232277;28;5613;-67
2022/12/14 11:02:58;;;;;;;;;;;;;;;7.72;65.89;95335.38;4230539;28;6302;-66
2022/12/14 11:05:03;;;;;;;;;;;;;;;7.75;65.76;95326.25;4230037;28;6275;-67
2022/12/14 11:07:08;;;;;;;;;;;;;;;7.78;65.57;95331.06;4231890;28;5597;-66
2022/12/14 11:09:20;;;;;;;;;;;;;;;7.77;65.90;95337.34;4227662;28;5796;-65
2022/12/14 11:11:25;;;;;;;;;;;;;;;7.79;65.68;95348.47;4236431;28;5593;-65
2022/12/14 11:13:30;;;;;;;;;;;;;;;7.79;65.62;95344.00;4227597;28;5605;-65
2022/12/14 11:15:36;;;;;;;;;;;;;;;7.80;65.65;95343.00;4230488;28;5629;-66
2022/12/14 11:17:42;;;;;;;;;;;;;;;7.80;65.77;95329.84;4235908;28;5668;-66
2022/12/14 11:20:03;;;;;;;;;;;;;;;7.81;65.62;95314.84;4219337;28;5616;-65
2022/12/14 11:22:12;;;;;;;;;;;;;;;7.82;65.88;95316.50;4201195;28;5795;-66
2022/12/14 11:24:25;;;;;;;;;;;;;;;7.83;65.51;95324.19;4233247;28;5597;-66
2022/12/14 11:26:33;;;;;;;;;;;;;;;7.83;65.78;95318.09;4236174;28;5684;-65
2022/12/14 11:28:46;;;;;;;;;;;;;;;7.85;65.48;95305.53;4227673;28;5601;-66
2022/12/14 11:30:56;;;;;;;;;;;;;;;7.87;65.71;95314.03;4228533;28;5617;-66
2022/12/14 11:32:59;;;;;;;;;;;;;;;7.86;65.64;95301.88;4234054;28;5739;-67
2022/12/14 11:35:02;;;;;;;;;;;;;;;7.87;65.93;95298.25;4229512;28;5601;-65
2022/12/14 11:37:14;;;;;;;;;;;;;;;7.89;65.75;95311.97;4232246;28;5822;-65
2022/12/14 11:39:21;;;;;;;;;;;;;;;7.89;65.63;95309.34;4227100;28;5619;-65
2022/12/14 11:41:28;;;;;;;;;;;;;;;7.89;65.85;95309.34;4233132;28;5597;-66
2022/12/14 11:43:34;;;;;;;;;;;;;;;7.87;65.87;95308.75;4235831;28;5613;-65
2022/12/14 11:45:39;;;;;;;;;;;;;;;7.89;65.71;95301.47;4220276;28;5619;-66
2022/12/14 11:47:42;;;;;;;;;;;;;;;7.91;65.61;95309.94;4234981;28;5616;-66
2022/12/14 11:49:47;;;;;;;;;;;;;;;7.91;65.62;95299.41;4227376;28;5644;-66
2022/12/14 11:51:59;;;;;;;;;;;;;;;7.95;65.93;95298.00;4225047;28;5691;-65
2022/12/14 11:54:03;;;;;;;;;;;;;;;7.95;65.48;95299.81;4219778;28;5608;-66
2022/12/14 11:56:10;;;;;;;;;;;;;;;7.94;65.74;95293.75;4218855;28;5624;-66
2022/12/14 11:58:18;;;;;;;;;;;;;;;7.98;65.40;95305.44;4226442;28;5684;-66
2022/12/14 12:00:25;;;;;;;;;;;;;;;8.00;65.29;95298.16;4224878;28;5501;-67
2022/12/14 12:02:33;;;;;;;;;;;;;;;8.00;65.59;95298.16;4227293;28;5627;-66
2022/12/14 12:04:45;;;;;;;;;;;;;;;8.02;65.44;95293.47;4221798;28;5517;-67
2022/12/14 12:06:50;;;;;;;;;;;;;;;8.04;65.74;95299.34;4226907;28;5601;-66
2022/12/14 12:08:56;;;;;;;;;;;;;;;8.03;65.64;95302.97;4223834;28;5605;-66
2022/12/14 12:11:02;;;;;;;;;;;;;;;8.03;65.84;95302.97;4235476;28;5688;-66
2022/12/14 12:13:16;;;;;;;;;;;;;;;8.05;65.52;95295.69;4226950;28;5617;-67
2022/12/14 12:15:22;;;;;;;;;;;;;;;8.05;65.42;95295.69;4235347;28;5597;-66
2022/12/14 12:17:38;;;;;;;;;;;;;;;8.06;65.67;95307.03;4224003;28;5613;-66
2022/12/14 12:19:41;;;;;;;;;;;;;;;8.07;65.58;95312.06;4235498;28;5601;-67
2022/12/14 12:21:45;;;;;;;;;;;;;;;8.08;65.64;95316.31;4226624;28;5589;-66
2022/12/14 12:23:56;;;;;;;;;;;;;;;8.08;65.78;95303.16;4227072;28;5617;-65
2022/12/14 12:26:00;;;;;;;;;;;;;;;8.08;65.83;95311.06;4233639;28;5685;-65
2022/12/14 12:28:11;;;;;;;;;;;;;;;8.08;65.69;95308.41;4228895;28;6294;-66
2022/12/14 12:30:27;;;;;;;;;;;;;;;8.09;65.49;95309.22;4226385;28;5597;-67
2022/12/14 12:32:37;;;;;;;;;;;;;;;8.06;65.64;95313.09;4227594;28;6293;-66
2022/12/14 12:34:45;;;;;;;;;;;;;;;8.06;65.39;95313.09;4230017;28;5529;-66
2022/12/14 12:36:51;;;;;;;;;;;;;;;8.10;65.44;95311.63;4229341;28;5797;-67
2022/12/14 12:39:16;;;;;;;;;;;;;;;8.14;65.59;95307.56;4233897;28;5598;-66
2022/12/14 12:41:29;;;;;;;;;;;;;;;8.17;65.57;95314.22;4235238;28;5597;-66
2022/12/14 12:43:37;;;;;;;;;;;;;;;8.19;65.33;95312.19;4234753;28;5706;-66
2022/12/14 12:45:46;;;;;;;;;;;;;;;8.20;65.66;95316.44;4234852;28;6286;-66
2022/12/14 12:47:54;;;;;;;;;;;;;;;8.21;65.82;95320.69;4234374;28;5091;-66
2022/12/14 12:50:00;;;;;;;;;;;;;;;8.22;65.79;95311.75;4235015;28;7655;-66
2022/12/14 12:52:07;;;;;;;;;;;;;;;8.21;65.67;95318.03;4234935;28;5609;-67
2022/12/14 12:54:14;;;;;;;;;;;;;;;8.21;65.83;95320.69;4234956;28;5602;-67
2022/12/14 12:56:20;;;;;;;;;;;;;;;8.22;65.79;95326.75;4235040;28;5704;-66
2022/12/14 12:58:27;;;;;;;;;;;;;;;8.24;65.75;95324.69;4229375;28;5604;-67
2022/12/14 13:00:32;;;;;;;;;;;;;;;8.23;65.80;95333.63;4220213;28;5678;-67
2022/12/14 13:02:38;;;;;;;;;;;;;;;8.23;65.69;95333.63;4221563;28;5687;-67
2022/12/14 13:04:45;;;;;;;;;;;;;;;8.23;65.77;95315.19;4222664;28;5642;-67
2022/12/14 13:06:57;;;;;;;;;;;;;;;8.27;66.05;95326.91;4226404;28;5632;-67
2022/12/14 13:09:06;;;;;;;;;;;;;;;8.28;65.92;95331.97;4232215;28;5705;-66
2022/12/14 13:11:16;;;;;;;;;;;;;;;8.30;65.87;95329.13;4226021;28;5620;-67
2022/12/14 13:13:32;;;;;;;;;;;;;;;8.28;65.85;95345.13;4225915;28;5620;-67
2022/12/14 13:15:38;;;;;;;;;;;;;;;8.28;65.88;95352.22;4226041;28;5620;-66
2022/12/14 13:17:46;;;;;;;;;;;;;;;8.29;65.86;95353.84;4229919;28;6291;-67
2022/12/14 13:19:56;;;;;;;;;;;;;;;8.29;66.13;95359.09;4217593;28;5703;-67
2022/12/14 13:22:00;;;;;;;;;;;;;;;8.31;66.05;95357.06;4227480;28;6376;-66
2022/12/14 13:24:16;;;;;;;;;;;;;;;8.33;66.10;95361.09;4230901;28;5616;-67
2022/12/14 13:26:40;;;;;;;;;;;;;;;8.33;66.16;95350.56;4230552;28;5597;-67
2022/12/14 13:29:10;;;;;;;;;;;;;;;8.35;65.76;95343.28;4220560;28;5604;-67
2022/12/14 13:31:24;;;;;;;;;;;;;;;8.34;66.19;95335.56;4217470;28;5627;-66
2022/12/14 13:34:01;;;;;;;;;;;;;;;8.38;65.79;95331.50;4221305;28;5782;-65
2022/12/14 13:36:28;;;;;;;;;;;;;;;8.39;66.12;95335.78;4225809;28;5827;-67
2022/12/14 13:38:48;;;;;;;;;;;;;;;8.41;65.93;95352.16;4226756;28;5612;-66
2022/12/14 13:41:14;;;;;;;;;;;;;;;8.41;66.06;95363.50;4226385;28;5640;-66
2022/12/14 13:43:33;;;;;;;;;;;;;;;8.43;66.29;95350.13;4224406;28;5605;-66
2022/12/14 13:45:40;;;;;;;;;;;;;;;8.43;66.27;95348.28;4217552;28;5730;-66
2022/12/14 13:47:47;;;;;;;;;;;;;;;8.43;66.37;95347.47;4222194;28;5703;-65
2022/12/14 13:49:54;;;;;;;;;;;;;;;8.42;66.21;95346.69;4227113;28;5610;-65
2022/12/14 13:52:32;;;;;;;;;;;;;;;8.45;65.96;95356.78;4234078;28;5597;-65
2022/12/14 13:54:39;;;;;;;;;;;;;;;8.49;65.98;95354.50;4233734;28;5597;-66
2022/12/14 13:56:42;;;;;;;;;;;;;;;8.51;65.95;95367.50;4234485;28;5661;-65
2022/12/14 13:58:47;;;;;;;;;;;;;;;8.52;66.24;95362.00;4234904;28;5597;-65
2022/12/14 14:00:56;;;;;;;;;;;;;;;8.53;66.28;95362.81;4237684;28;5719;-65
2022/12/14 14:02:59;;;;;;;;;;;;;;;8.53;66.57;95365.44;4237414;28;5606;-66
2022/12/14 14:05:36;;;;;;;;;;;;;;;8.54;66.33;95370.50;4237674;28;5664;-67
2022/12/14 14:07:52;;;;;;;;;;;;;;;8.53;66.21;95373.34;4231671;28;5597;-66
2022/12/14 14:10:00;;;;;;;;;;;;;;;8.53;66.41;95368.06;4227370;28;5699;-66
2022/12/14 14:12:04;;;;;;;;;;;;;;;8.54;66.46;95367.84;4223236;28;5631;-66
2022/12/14 14:14:20;;;;;;;;;;;;;;;8.55;66.31;95369.47;4237171;28;5605;-66
2022/12/14 14:16:32;;;;;;;;;;;;;;;8.55;66.60;95364.19;4237369;28;6198;-66
2022/12/14 14:18:46;;;;;;;;;;;;;;;8.55;66.41;95371.28;4237308;28;5245;-66
2022/12/14 14:20:51;;;;;;;;;;;;;;;8.54;66.72;95372.31;4237272;28;7380;-66
2022/12/14 14:23:30;;;;;;;;;;;;;;;8.52;66.87;95375.16;4237234;28;6282;-66
2022/12/14 14:25:43;;;;;;;;;;;;;;;8.51;66.99;95378.03;4230283;28;5667;-66
2022/12/14 14:27:49;;;;;;;;;;;;;;;8.50;66.75;95382.47;4202504;28;6112;-66
2022/12/14 14:29:54;;;;;;;;;;;;;;;8.52;66.72;95377.00;4220448;28;5608;-66
2022/12/14 14:31:59;;;;;;;;;;;;;;;8.53;66.63;95384.69;4220430;28;5633;-66
2022/12/14 14:34:03;;;;;;;;;;;;;;;8.53;66.90;95379.41;4220154;28;5648;-66
2022/12/14 14:36:10;;;;;;;;;;;;;;;8.55;66.88;95385.28;4219429;28;5611;-66
2022/12/14 14:38:24;;;;;;;;;;;;;;;8.54;66.90;95381.03;4219937;28;5715;-66
2022/12/14 14:40:32;;;;;;;;;;;;;;;8.57;66.93;95385.84;4219884;28;5612;-66
2022/12/14 14:43:05;;;;;;;;;;;;;;;8.59;66.92;95386.44;4219920;28;5607;-66
2022/12/14 14:45:25;;;;;;;;;;;;;;;8.59;66.82;95396.97;4220264;28;5628;-66
2022/12/14 14:47:33;;;;;;;;;;;;;;;8.60;66.81;95390.69;4219913;28;5797;-66
2022/12/14 14:49:39;;;;;;;;;;;;;;;8.59;66.78;95381.19;4220294;28;5624;-67
2022/12/14 14:51:42;;;;;;;;;;;;;;;8.60;67.16;95390.69;4220043;28;5683;-66
2022/12/14 14:53:45;;;;;;;;;;;;;;;8.62;67.16;95403.66;4219760;28;6003;-66
2022/12/14 14:56:31;;;;;;;;;;;;;;;8.63;66.79;95405.28;4219866;28;5715;-66
2022/12/14 14:58:36;;;;;;;;;;;;;;;8.67;67.09;95395.91;4232507;28;5867;-65
2022/12/14 15:00:48;;;;;;;;;;;;;;;8.65;66.94;95390.88;4236786;28;5605;-66
2022/12/14 15:02:53;;;;;;;;;;;;;;;8.65;66.87;95396.13;4236686;28;5798;-67
2022/12/14 15:04:57;;;;;;;;;;;;;;;8.66;66.97;95394.31;4236588;28;5723;-67
2022/12/14 15:07:25;;;;;;;;;;;;;;;8.67;67.26;95396.72;4234513;28;5617;-66
2022/12/14 15:09:32;;;;;;;;;;;;;;;8.67;67.16;95394.09;4226409;28;5634;-67
2022/12/14 15:11:46;;;;;;;;;;;;;;;8.69;67.21;95397.31;4234045;28;5723;-66
2022/12/14 15:13:58;;;;;;;;;;;;;;;8.68;67.20;95394.88;4229691;28;5684;-66
2022/12/14 15:16:01;;;;;;;;;;;;;;;8.71;67.10;95403.16;4230800;28;6291;-66
2022/12/14 15:18:14;;;;;;;;;;;;;;;8.73;67.49;95393.25;4234238;28;5688;-66
2022/12/14 15:20:23;;;;;;;;;;;;;;;8.75;67.44;95390.38;4233517;28;5598;-65
2022/12/14 15:22:27;;;;;;;;;;;;;;;8.77;67.67;95395.44;4230862;28;5687;-65
2022/12/14 15:24:36;;;;;;;;;;;;;;;8.77;67.52;95398.06;4229445;28;5589;-66
2022/12/14 15:26:40;;;;;;;;;;;;;;;8.75;67.60;95396.47;4228885;28;5707;-66
2022/12/14 15:28:46;;;;;;;;;;;;;;;8.75;67.31;95406.19;4218254;28;5719;-66
2022/12/14 15:30:48;;;;;;;;;;;;;;;8.76;67.39;95392.00;4227525;28;5692;-66
2022/12/14 15:32:54;;;;;;;;;;;;;;;8.73;67.48;95387.97;4233609;28;5581;-66
2022/12/14 15:34:59;;;;;;;;;;;;;;;8.74;67.37;95391.41;4227734;28;5688;-66
2022/12/14 15:37:02;;;;;;;;;;;;;;;8.73;67.66;95393.25;4226516;28;5691;-66
2022/12/14 15:39:05;;;;;;;;;;;;;;;8.74;67.27;95394.84;4232239;28;5865;-66
2022/12/14 15:41:15;;;;;;;;;;;;;;;8.77;67.69;95392.81;4229550;28;5577;-66
2022/12/14 15:43:22;;;;;;;;;;;;;;;8.74;67.60;95391.41;4228752;28;5682;-66
2022/12/14 15:45:26;;;;;;;;;;;;;;;8.74;67.43;95394.84;4228817;28;5748;-66
2022/12/14 15:47:30;;;;;;;;;;;;;;;8.75;67.57;95399.09;4229894;28;5802;-66
2022/12/14 15:49:33;;;;;;;;;;;;;;;8.80;67.73;95395.00;4231027;28;6375;-66
2022/12/14 15:51:39;;;;;;;;;;;;;;;8.82;67.56;95395.59;4229266;28;5613;-65
2022/12/14 15:53:46;;;;;;;;;;;;;;;8.83;67.72;95402.47;4230040;28;5688;-66
2022/12/14 15:55:52;;;;;;;;;;;;;;;8.84;67.79;95398.84;4221139;28;5620;-66
2022/12/14 15:58:10;;;;;;;;;;;;;;;8.84;67.47;95406.75;4229961;28;5810;-66
2022/12/14 16:00:15;;;;;;;;;;;;;;;8.83;67.68;95413.81;4228016;28;5696;-66
2022/12/14 16:02:25;;;;;;;;;;;;;;;8.83;67.97;95420.91;4222377;28;6342;-65
2022/12/14 16:04:30;;;;;;;;;;;;;;;8.81;68.02;95415.06;4222433;28;5615;-65
2022/12/14 16:06:37;;;;;;;;;;;;;;;8.82;68.05;95419.28;4224545;28;5826;-69
2022/12/14 16:08:47;;;;;;;;;;;;;;;8.79;67.61;95422.38;4218084;28;5806;-70
2022/12/14 16:10:51;;;;;;;;;;;;;;;8.82;67.71;95419.28;4231813;28;5703;-72
2022/12/14 16:13:00;;;;;;;;;;;;;;;8.83;68.04;95424.34;4227087;28;6520;-65
2022/12/14 16:15:08;;;;;;;;;;;;;;;8.87;67.86;95424.75;4227164;28;5772;-66
2022/12/14 16:17:16;;;;;;;;;;;;;;;8.86;68.04;95423.94;4229113;28;5613;-66
2022/12/14 16:19:21;;;;;;;;;;;;;;;8.83;67.74;95421.72;4228015;28;5695;-69
2022/12/14 16:21:33;;;;;;;;;;;;;;;8.83;67.82;95418.28;4230784;28;5585;-66
2022/12/14 16:23:36;;;;;;;;;;;;;;;8.84;68.07;95431.25;4222634;28;5622;-65
2022/12/14 16:25:52;;;;;;;;;;;;;;;8.84;67.88;95427.81;4231556;28;5808;-67
2022/12/14 16:27:55;;;;;;;;;;;;;;;8.84;67.89;95430.47;4234205;28;5611;-67
2022/12/14 16:30:06;;;;;;;;;;;;;;;8.83;67.84;95419.09;4227173;28;5605;-68
2022/12/14 16:32:16;;;;;;;;;;;;;;;8.83;67.79;95420.91;4230391;28;5859;-66
2022/12/14 16:34:22;;;;;;;;;;;;;;;8.82;67.98;95416.66;4229434;28;5696;-68
2022/12/14 16:36:25;;;;;;;;;;;;;;;8.82;67.99;95412.19;4232792;28;5745;-68
2022/12/14 16:38:29;;;;;;;;;;;;;;;8.83;67.92;95405.09;4230691;28;5875;-68
2022/12/14 16:40:35;;;;;;;;;;;;;;;8.85;68.12;95410.97;4233664;28;5079;-66
2022/12/14 16:42:38;;;;;;;;;;;;;;;8.84;67.65;95401.47;4233154;28;7844;-65
2022/12/14 16:44:41;;;;;;;;;;;;;;;8.84;67.65;95404.91;4226703;28;5594;-66
2022/12/14 16:47:04;;;;;;;;;;;;;;;8.83;68.18;95407.72;4226835;28;5687;-68
2022/12/14 16:49:28;;;;;;;;;;;;;;;8.83;67.80;95407.72;4226265;28;5663;-67
2022/12/14 16:51:34;;;;;;;;;;;;;;;8.81;67.80;95407.16;4232618;28;6776;-67
2022/12/14 16:53:59;;;;;;;;;;;;;;;8.80;68.01;95413.44;4221440;28;5816;-69
2022/12/14 16:56:06;;;;;;;;;;;;;;;8.80;67.93;95413.44;4224592;28;5799;-68
2022/12/14 16:58:17;;;;;;;;;;;;;;;8.81;68.10;95415.84;4226871;28;5708;-67
2022/12/14 17:00:23;;;;;;;;;;;;;;;8.83;68.17;95420.91;4219374;28;5899;-68
2022/12/14 17:02:30;;;;;;;;;;;;;;;8.83;68.19;95416.44;4231618;28;5617;-67
2022/12/14 17:04:37;;;;;;;;;;;;;;;8.82;67.92;95428.00;4224123;28;5733;-69
2022/12/14 17:06:47;;;;;;;;;;;;;;;8.81;68.13;95425.59;4233062;28;5680;-69
2022/12/14 17:08:50;;;;;;;;;;;;;;;8.81;67.77;95421.13;4231362;28;5784;-65
2022/12/14 17:10:52;;;;;;;;;;;;;;;8.81;68.03;95425.59;4225727;28;5613;-62